sensor_id;sensor_type;location;lat;lon;timestamp;temperature;humidity
24162;DHT22;12318;51.262;7.066;2023-03-20T00:01:21;8.40;99.90
24162;DHT22;12318;51.262;7.066;2023-03-20T00:03:49;8.40;99.90
24162;DHT22;12318;51.262;7.066;2023-03-20T00:06:20;8.40;99.90
24162;DHT22;12318;51.262;7.066;2023-03-20T00:08:47;8.40;99.90
24162;DHT22;12318;51.262;7.066;2023-03-20T00:13:59;8.30;99.90
24162;DHT22;12318;51.262;7.066;2023-03-20T00:16:30;8.20;99.90
24162;DHT22;12318;51.262;7.066;2023-03-20T00:18:56;8.10;99.90
24162;DHT22;12318;51.262;7.066;2023-03-20T00:21:22;8.10;99.90
24162;DHT22;12318;51.262;7.066;2023-03-20T00:23:48;8.10;99.90
24162;DHT22;12318;51.262;7.066;2023-03-20T00:26:17;8.00;99.90
24162;DHT22;12318;51.262;7.066;2023-03-20T00:28:47;8.10;99.90
24162;DHT22;12318;51.262;7.066;2023-03-20T00:33:52;8.10;99.90
24162;DHT22;12318;51.262;7.066;2023-03-20T00:36:19;8.10;99.90
24162;DHT22;12318;51.262;7.066;2023-03-20T00:38:45;8.00;99.90
24162;DHT22;12318;51.262;7.066;2023-03-20T00:44:02;8.00;99.90
24162;DHT22;12318;51.262;7.066;2023-03-20T00:46:35;8.00;99.90
24162;DHT22;12318;51.262;7.066;2023-03-20T00:49:02;7.90;99.90
24162;DHT22;12318;51.262;7.066;2023-03-20T00:51:28;7.80;99.90
24162;DHT22;12318;51.262;7.066;2023-03-20T00:53:55;7.70;99.90
24162;DHT22;12318;51.262;7.066;2023-03-20T00:57:21;7.80;99.90
24162;DHT22;12318;51.262;7.066;2023-03-20T00:59:21;7.70;99.90
24162;DHT22;12318;51.262;7.066;2023-03-20T01:01:48;7.70;99.90
24162;DHT22;12318;51.262;7.066;2023-03-20T01:04:16;7.80;99.90
24162;DHT22;12318;51.262;7.066;2023-03-20T01:06:43;7.80;99.90
24162;DHT22;12318;51.262;7.066;2023-03-20T01:09:09;7.70;99.90
24162;DHT22;12318;51.262;7.066;2023-03-20T01:11:36;7.70;99.90
24162;DHT22;12318;51.262;7.066;2023-03-20T01:14:04;7.90;99.90
24162;DHT22;12318;51.262;7.066;2023-03-20T01:16:30;7.90;99.90
24162;DHT22;12318;51.262;7.066;2023-03-20T01:18:56;7.90;99.90
24162;DHT22;12318;51.262;7.066;2023-03-20T01:21:22;7.80;99.90
24162;DHT22;12318;51.262;7.066;2023-03-20T01:23:49;7.80;99.90
24162;DHT22;12318;51.262;7.066;2023-03-20T01:28:48;7.80;99.90
24162;DHT22;12318;51.262;7.066;2023-03-20T01:31:15;7.70;99.90
24162;DHT22;12318;51.262;7.066;2023-03-20T01:33:42;7.80;99.90
24162;DHT22;12318;51.262;7.066;2023-03-20T01:36:12;7.90;99.90
24162;DHT22;12318;51.262;7.066;2023-03-20T01:38:39;7.80;99.90
24162;DHT22;12318;51.262;7.066;2023-03-20T01:43:35;7.90;99.90
24162;DHT22;12318;51.262;7.066;2023-03-20T01:51:29;7.90;99.90
24162;DHT22;12318;51.262;7.066;2023-03-20T01:54:07;7.90;99.90
24162;DHT22;12318;51.262;7.066;2023-03-20T01:56:39;7.90;99.90
24162;DHT22;12318;51.262;7.066;2023-03-20T01:59:12;7.90;99.90
24162;DHT22;12318;51.262;7.066;2023-03-20T02:01:41;7.90;99.90
24162;DHT22;12318;51.262;7.066;2023-03-20T02:04:08;7.80;99.90
24162;DHT22;12318;51.262;7.066;2023-03-20T02:06:35;7.80;99.90
24162;DHT22;12318;51.262;7.066;2023-03-20T02:09:02;7.90;99.90
24162;DHT22;12318;51.262;7.066;2023-03-20T02:11:29;7.80;99.90
24162;DHT22;12318;51.262;7.066;2023-03-20T02:13:58;7.80;99.90
24162;DHT22;12318;51.262;7.066;2023-03-20T02:16:25;7.80;99.90
24162;DHT22;12318;51.262;7.066;2023-03-20T02:18:52;7.80;99.90
24162;DHT22;12318;51.262;7.066;2023-03-20T02:27:25;7.60;99.90
24162;DHT22;12318;51.262;7.066;2023-03-20T02:43:37;7.50;99.90
24162;DHT22;12318;51.262;7.066;2023-03-20T02:52:43;7.20;99.90
24162;DHT22;12318;51.262;7.066;2023-03-20T02:55:31;7.30;99.90
24162;DHT22;12318;51.262;7.066;2023-03-20T02:58:25;7.40;99.90
24162;DHT22;12318;51.262;7.066;2023-03-20T03:03:49;7.20;99.90
24162;DHT22;12318;51.262;7.066;2023-03-20T03:06:26;7.30;99.90
24162;DHT22;12318;51.262;7.066;2023-03-20T03:09:19;7.30;99.90
24162;DHT22;12318;51.262;7.066;2023-03-20T03:11:50;7.30;99.90
24162;DHT22;12318;51.262;7.066;2023-03-20T03:16:54;7.50;99.90
24162;DHT22;12318;51.262;7.066;2023-03-20T03:19:23;7.70;99.90
24162;DHT22;12318;51.262;7.066;2023-03-20T03:21:50;7.70;99.90
24162;DHT22;12318;51.262;7.066;2023-03-20T03:24:43;7.60;99.90
24162;DHT22;12318;51.262;7.066;2023-03-20T03:27:18;7.60;99.90
24162;DHT22;12318;51.262;7.066;2023-03-20T03:29:58;7.60;99.90
24162;DHT22;12318;51.262;7.066;2023-03-20T03:32:26;7.70;99.90
24162;DHT22;12318;51.262;7.066;2023-03-20T03:34:53;7.80;99.90
24162;DHT22;12318;51.262;7.066;2023-03-20T03:42:36;7.70;99.90
24162;DHT22;12318;51.262;7.066;2023-03-20T03:45:14;7.60;99.90
24162;DHT22;12318;51.262;7.066;2023-03-20T03:47:57;7.40;99.90
24162;DHT22;12318;51.262;7.066;2023-03-20T03:50:32;7.30;99.90
24162;DHT22;12318;51.262;7.066;2023-03-20T03:53:05;7.20;99.90
24162;DHT22;12318;51.262;7.066;2023-03-20T03:55:38;7.30;99.90
24162;DHT22;12318;51.262;7.066;2023-03-20T03:58:11;7.40;99.90
24162;DHT22;12318;51.262;7.066;2023-03-20T04:00:41;7.40;99.90
24162;DHT22;12318;51.262;7.066;2023-03-20T04:03:10;7.40;99.90
24162;DHT22;12318;51.262;7.066;2023-03-20T04:05:40;7.40;99.90
24162;DHT22;12318;51.262;7.066;2023-03-20T04:08:07;7.40;99.90
24162;DHT22;12318;51.262;7.066;2023-03-20T04:10:33;7.30;99.90
24162;DHT22;12318;51.262;7.066;2023-03-20T04:12:58;7.40;99.90
24162;DHT22;12318;51.262;7.066;2023-03-20T04:15:24;7.40;99.90
24162;DHT22;12318;51.262;7.066;2023-03-20T04:17:52;7.50;99.90
24162;DHT22;12318;51.262;7.066;2023-03-20T04:20:18;7.50;99.90
24162;DHT22;12318;51.262;7.066;2023-03-20T04:22:44;7.50;99.90
24162;DHT22;12318;51.262;7.066;2023-03-20T04:25:17;7.50;99.90
24162;DHT22;12318;51.262;7.066;2023-03-20T04:27:43;7.60;99.90
24162;DHT22;12318;51.262;7.066;2023-03-20T04:30:10;7.60;99.90
24162;DHT22;12318;51.262;7.066;2023-03-20T04:32:36;7.70;99.90
24162;DHT22;12318;51.262;7.066;2023-03-20T04:35:02;7.60;99.90
24162;DHT22;12318;51.262;7.066;2023-03-20T04:37:27;7.70;99.90
24162;DHT22;12318;51.262;7.066;2023-03-20T04:39:54;7.70;99.90
24162;DHT22;12318;51.262;7.066;2023-03-20T04:42:20;7.60;99.90
24162;DHT22;12318;51.262;7.066;2023-03-20T04:44:46;7.70;99.90
24162;DHT22;12318;51.262;7.066;2023-03-20T04:47:11;7.60;99.90
24162;DHT22;12318;51.262;7.066;2023-03-20T04:49:37;7.50;99.90
24162;DHT22;12318;51.262;7.066;2023-03-20T04:52:03;7.50;99.90
24162;DHT22;12318;51.262;7.066;2023-03-20T04:54:29;7.30;99.90
24162;DHT22;12318;51.262;7.066;2023-03-20T04:56:55;7.30;99.90
24162;DHT22;12318;51.262;7.066;2023-03-20T04:59:21;7.30;99.90
24162;DHT22;12318;51.262;7.066;2023-03-20T05:01:46;7.30;99.90
24162;DHT22;12318;51.262;7.066;2023-03-20T05:04:12;7.30;99.90
24162;DHT22;12318;51.262;7.066;2023-03-20T05:06:38;7.30;99.90
24162;DHT22;12318;51.262;7.066;2023-03-20T05:09:04;7.50;99.90
24162;DHT22;12318;51.262;7.066;2023-03-20T05:11:30;7.40;99.90
24162;DHT22;12318;51.262;7.066;2023-03-20T05:13:56;7.40;99.90
24162;DHT22;12318;51.262;7.066;2023-03-20T05:16:21;7.40;99.90
24162;DHT22;12318;51.262;7.066;2023-03-20T05:18:47;7.30;99.90
24162;DHT22;12318;51.262;7.066;2023-03-20T05:21:13;7.40;99.90
24162;DHT22;12318;51.262;7.066;2023-03-20T05:23:39;7.40;99.90
24162;DHT22;12318;51.262;7.066;2023-03-20T05:26:05;7.40;99.90
24162;DHT22;12318;51.262;7.066;2023-03-20T05:28:31;7.40;99.90
24162;DHT22;12318;51.262;7.066;2023-03-20T05:30:57;7.30;99.90
24162;DHT22;12318;51.262;7.066;2023-03-20T05:33:23;7.20;99.90
24162;DHT22;12318;51.262;7.066;2023-03-20T05:35:49;7.10;99.90
24162;DHT22;12318;51.262;7.066;2023-03-20T05:38:14;7.10;99.90
24162;DHT22;12318;51.262;7.066;2023-03-20T05:40:40;7.00;99.90
24162;DHT22;12318;51.262;7.066;2023-03-20T05:43:07;7.00;99.90
24162;DHT22;12318;51.262;7.066;2023-03-20T05:45:33;7.00;99.90
24162;DHT22;12318;51.262;7.066;2023-03-20T05:47:59;6.90;99.90
24162;DHT22;12318;51.262;7.066;2023-03-20T05:50:24;6.80;99.90
24162;DHT22;12318;51.262;7.066;2023-03-20T05:52:50;6.80;99.90
24162;DHT22;12318;51.262;7.066;2023-03-20T05:55:16;6.90;99.90
24162;DHT22;12318;51.262;7.066;2023-03-20T05:57:42;6.90;99.90
24162;DHT22;12318;51.262;7.066;2023-03-20T06:00:08;6.90;99.90
24162;DHT22;12318;51.262;7.066;2023-03-20T06:02:37;7.00;99.90
24162;DHT22;12318;51.262;7.066;2023-03-20T06:05:03;7.00;99.90
24162;DHT22;12318;51.262;7.066;2023-03-20T06:07:29;7.00;99.90
24162;DHT22;12318;51.262;7.066;2023-03-20T06:09:55;6.90;99.90
24162;DHT22;12318;51.262;7.066;2023-03-20T06:12:21;7.00;99.90
24162;DHT22;12318;51.262;7.066;2023-03-20T06:14:47;7.00;99.90
24162;DHT22;12318;51.262;7.066;2023-03-20T06:17:12;7.10;99.90
24162;DHT22;12318;51.262;7.066;2023-03-20T06:19:38;7.10;99.90
24162;DHT22;12318;51.262;7.066;2023-03-20T06:22:04;7.00;99.90
24162;DHT22;12318;51.262;7.066;2023-03-20T06:24:30;7.10;99.90
24162;DHT22;12318;51.262;7.066;2023-03-20T06:26:55;7.20;99.90
24162;DHT22;12318;51.262;7.066;2023-03-20T06:29:21;7.30;99.90
24162;DHT22;12318;51.262;7.066;2023-03-20T06:31:47;7.30;99.90
24162;DHT22;12318;51.262;7.066;2023-03-20T06:34:13;7.20;99.90
24162;DHT22;12318;51.262;7.066;2023-03-20T06:36:39;7.30;99.90
24162;DHT22;12318;51.262;7.066;2023-03-20T06:39:05;7.30;99.90
24162;DHT22;12318;51.262;7.066;2023-03-20T06:41:32;7.30;99.90
24162;DHT22;12318;51.262;7.066;2023-03-20T06:43:57;7.40;99.90
24162;DHT22;12318;51.262;7.066;2023-03-20T06:46:23;7.30;99.90
24162;DHT22;12318;51.262;7.066;2023-03-20T06:48:56;7.40;99.90
24162;DHT22;12318;51.262;7.066;2023-03-20T06:51:22;7.50;99.90
24162;DHT22;12318;51.262;7.066;2023-03-20T06:53:48;7.60;99.90
24162;DHT22;12318;51.262;7.066;2023-03-20T06:56:13;7.40;99.90
24162;DHT22;12318;51.262;7.066;2023-03-20T06:58:39;7.40;99.90
24162;DHT22;12318;51.262;7.066;2023-03-20T07:01:12;7.30;99.90
24162;DHT22;12318;51.262;7.066;2023-03-20T07:03:40;7.40;99.90
24162;DHT22;12318;51.262;7.066;2023-03-20T07:06:06;7.50;99.90
24162;DHT22;12318;51.262;7.066;2023-03-20T07:08:33;7.40;99.90
24162;DHT22;12318;51.262;7.066;2023-03-20T07:10:59;7.30;99.90
24162;DHT22;12318;51.262;7.066;2023-03-20T07:13:32;7.40;99.90
24162;DHT22;12318;51.262;7.066;2023-03-20T07:16:04;7.60;99.90
24162;DHT22;12318;51.262;7.066;2023-03-20T07:18:55;7.60;99.90
24162;DHT22;12318;51.262;7.066;2023-03-20T07:21:24;7.60;99.90
24162;DHT22;12318;51.262;7.066;2023-03-20T07:23:50;7.90;99.90
24162;DHT22;12318;51.262;7.066;2023-03-20T07:26:25;7.90;99.90
24162;DHT22;12318;51.262;7.066;2023-03-20T07:29:12;7.90;99.90
24162;DHT22;12318;51.262;7.066;2023-03-20T07:31:40;7.80;99.90
24162;DHT22;12318;51.262;7.066;2023-03-20T07:34:09;7.80;99.90
24162;DHT22;12318;51.262;7.066;2023-03-20T07:36:38;7.80;99.90
24162;DHT22;12318;51.262;7.066;2023-03-20T07:39:07;7.80;99.90
24162;DHT22;12318;51.262;7.066;2023-03-20T07:41:35;7.70;99.90
24162;DHT22;12318;51.262;7.066;2023-03-20T07:44:10;7.70;99.90
24162;DHT22;12318;51.262;7.066;2023-03-20T07:46:41;7.80;99.90
24162;DHT22;12318;51.262;7.066;2023-03-20T07:49:09;7.90;99.90
24162;DHT22;12318;51.262;7.066;2023-03-20T07:51:35;8.00;99.90
24162;DHT22;12318;51.262;7.066;2023-03-20T07:54:11;8.00;99.90
24162;DHT22;12318;51.262;7.066;2023-03-20T07:56:37;7.90;99.90
24162;DHT22;12318;51.262;7.066;2023-03-20T07:59:03;8.00;99.90
24162;DHT22;12318;51.262;7.066;2023-03-20T08:01:32;8.10;99.90
24162;DHT22;12318;51.262;7.066;2023-03-20T08:03:58;8.10;99.90
24162;DHT22;12318;51.262;7.066;2023-03-20T08:06:24;8.00;99.90
24162;DHT22;12318;51.262;7.066;2023-03-20T08:08:51;7.90;99.90
24162;DHT22;12318;51.262;7.066;2023-03-20T08:11:18;8.00;99.90
24162;DHT22;12318;51.262;7.066;2023-03-20T08:13:44;7.90;99.90
24162;DHT22;12318;51.262;7.066;2023-03-20T08:16:10;7.90;99.90
24162;DHT22;12318;51.262;7.066;2023-03-20T08:18:36;7.80;99.90
24162;DHT22;12318;51.262;7.066;2023-03-20T08:21:02;7.90;99.90
24162;DHT22;12318;51.262;7.066;2023-03-20T08:23:28;7.90;99.90
24162;DHT22;12318;51.262;7.066;2023-03-20T08:25:54;8.00;99.90
24162;DHT22;12318;51.262;7.066;2023-03-20T08:28:20;8.10;99.90
24162;DHT22;12318;51.262;7.066;2023-03-20T08:30:46;8.30;99.90
24162;DHT22;12318;51.262;7.066;2023-03-20T08:33:13;8.30;99.90
24162;DHT22;12318;51.262;7.066;2023-03-20T08:35:40;8.40;99.90
24162;DHT22;12318;51.262;7.066;2023-03-20T08:38:06;8.40;99.90
24162;DHT22;12318;51.262;7.066;2023-03-20T08:40:31;8.40;99.90
24162;DHT22;12318;51.262;7.066;2023-03-20T08:42:57;8.50;99.90
24162;DHT22;12318;51.262;7.066;2023-03-20T08:45:23;8.50;99.90
24162;DHT22;12318;51.262;7.066;2023-03-20T08:47:51;8.60;99.90
24162;DHT22;12318;51.262;7.066;2023-03-20T08:50:17;8.60;99.90
24162;DHT22;12318;51.262;7.066;2023-03-20T08:52:43;8.50;99.90
24162;DHT22;12318;51.262;7.066;2023-03-20T08:55:11;8.70;99.90
24162;DHT22;12318;51.262;7.066;2023-03-20T08:57:38;8.70;99.90
24162;DHT22;12318;51.262;7.066;2023-03-20T09:00:07;8.70;99.90
24162;DHT22;12318;51.262;7.066;2023-03-20T09:02:34;8.60;99.90
24162;DHT22;12318;51.262;7.066;2023-03-20T09:05:00;8.60;99.90
24162;DHT22;12318;51.262;7.066;2023-03-20T09:07:26;8.80;99.90
24162;DHT22;12318;51.262;7.066;2023-03-20T09:09:54;8.80;99.90
24162;DHT22;12318;51.262;7.066;2023-03-20T09:15:56;8.60;99.90
24162;DHT22;12318;51.262;7.066;2023-03-20T09:22:07;8.70;99.90
24162;DHT22;12318;51.262;7.066;2023-03-20T09:24:44;8.80;99.90
24162;DHT22;12318;51.262;7.066;2023-03-20T09:27:21;8.90;99.90
24162;DHT22;12318;51.262;7.066;2023-03-20T09:29:54;8.90;99.90
24162;DHT22;12318;51.262;7.066;2023-03-20T09:32:41;9.00;99.90
24162;DHT22;12318;51.262;7.066;2023-03-20T09:35:14;8.80;99.90
24162;DHT22;12318;51.262;7.066;2023-03-20T09:37:48;8.90;99.90
24162;DHT22;12318;51.262;7.066;2023-03-20T09:40:51;9.10;99.90
24162;DHT22;12318;51.262;7.066;2023-03-20T10:01:09;9.00;99.90
24162;DHT22;12318;51.262;7.066;2023-03-20T10:04:17;9.00;99.90
24162;DHT22;12318;51.262;7.066;2023-03-20T10:07:00;9.00;99.90
24162;DHT22;12318;51.262;7.066;2023-03-20T10:09:42;9.00;99.90
24162;DHT22;12318;51.262;7.066;2023-03-20T10:12:48;8.80;99.90
24162;DHT22;12318;51.262;7.066;2023-03-20T10:15:39;8.70;99.90
24162;DHT22;12318;51.262;7.066;2023-03-20T10:18:30;8.70;99.90
24162;DHT22;12318;51.262;7.066;2023-03-20T10:21:35;8.60;99.90
24162;DHT22;12318;51.262;7.066;2023-03-20T10:24:02;8.80;99.90
24162;DHT22;12318;51.262;7.066;2023-03-20T10:26:43;8.90;99.90
24162;DHT22;12318;51.262;7.066;2023-03-20T10:32:06;9.20;99.90
24162;DHT22;12318;51.262;7.066;2023-03-20T10:40:40;9.20;99.90
24162;DHT22;12318;51.262;7.066;2023-03-20T10:43:41;9.30;99.90
24162;DHT22;12318;51.262;7.066;2023-03-20T10:55:38;9.30;97.40
24162;DHT22;12318;51.262;7.066;2023-03-20T10:58:27;9.40;98.10
24162;DHT22;12318;51.262;7.066;2023-03-20T11:01:10;9.50;97.40
24162;DHT22;12318;51.262;7.066;2023-03-20T11:04:08;9.70;97.50
24162;DHT22;12318;51.262;7.066;2023-03-20T11:10:14;9.70;97.20
24162;DHT22;12318;51.262;7.066;2023-03-20T11:12:55;9.80;96.50
24162;DHT22;12318;51.262;7.066;2023-03-20T11:18:24;9.80;95.20
24162;DHT22;12318;51.262;7.066;2023-03-20T11:21:19;9.50;95.40
24162;DHT22;12318;51.262;7.066;2023-03-20T11:24:39;9.50;95.10
24162;DHT22;12318;51.262;7.066;2023-03-20T11:34:10;9.60;96.50
24162;DHT22;12318;51.262;7.066;2023-03-20T11:36:57;9.40;96.10
24162;DHT22;12318;51.262;7.066;2023-03-20T11:39:28;9.40;97.50
24162;DHT22;12318;51.262;7.066;2023-03-20T11:42:18;9.30;99.90
24162;DHT22;12318;51.262;7.066;2023-03-20T11:44:56;9.20;99.90
24162;DHT22;12318;51.262;7.066;2023-03-20T11:47:25;9.10;99.90
24162;DHT22;12318;51.262;7.066;2023-03-20T11:50:33;9.20;99.90
24162;DHT22;12318;51.262;7.066;2023-03-20T11:53:24;9.30;99.90
24162;DHT22;12318;51.262;7.066;2023-03-20T11:56:26;9.40;99.90
24162;DHT22;12318;51.262;7.066;2023-03-20T11:59:10;9.40;99.90
24162;DHT22;12318;51.262;7.066;2023-03-20T12:01:41;9.20;99.90
24162;DHT22;12318;51.262;7.066;2023-03-20T12:04:16;8.90;99.90
24162;DHT22;12318;51.262;7.066;2023-03-20T12:07:33;9.00;99.90
24162;DHT22;12318;51.262;7.066;2023-03-20T12:10:15;9.10;99.90
24162;DHT22;12318;51.262;7.066;2023-03-20T12:12:53;9.10;99.90
24162;DHT22;12318;51.262;7.066;2023-03-20T12:15:41;9.00;99.90
24162;DHT22;12318;51.262;7.066;2023-03-20T12:18:46;9.00;99.90
24162;DHT22;12318;51.262;7.066;2023-03-20T12:27:37;8.80;99.90
24162;DHT22;12318;51.262;7.066;2023-03-20T12:33:42;8.60;99.90
24162;DHT22;12318;51.262;7.066;2023-03-20T12:36:18;8.70;99.90
24162;DHT22;12318;51.262;7.066;2023-03-20T12:38:48;8.50;99.90
24162;DHT22;12318;51.262;7.066;2023-03-20T12:41:21;8.60;99.90
24162;DHT22;12318;51.262;7.066;2023-03-20T12:44:08;8.60;99.90
24162;DHT22;12318;51.262;7.066;2023-03-20T12:52:43;8.40;99.90
24162;DHT22;12318;51.262;7.066;2023-03-20T12:58:22;8.50;99.90
24162;DHT22;12318;51.262;7.066;2023-03-20T13:15:15;8.70;99.90
24162;DHT22;12318;51.262;7.066;2023-03-20T13:17:51;8.90;99.90
24162;DHT22;12318;51.262;7.066;2023-03-20T13:23:08;8.80;99.90
24162;DHT22;12318;51.262;7.066;2023-03-20T13:25:39;8.90;99.90
24162;DHT22;12318;51.262;7.066;2023-03-20T13:34:00;8.80;99.90
24162;DHT22;12318;51.262;7.066;2023-03-20T13:39:09;8.70;99.90
24162;DHT22;12318;51.262;7.066;2023-03-20T13:41:38;8.70;99.90
24162;DHT22;12318;51.262;7.066;2023-03-20T13:44:05;8.60;99.90
24162;DHT22;12318;51.262;7.066;2023-03-20T13:49:15;8.60;99.90
24162;DHT22;12318;51.262;7.066;2023-03-20T13:51:46;8.60;99.90
24162;DHT22;12318;51.262;7.066;2023-03-20T14:00:27;8.70;99.90
24162;DHT22;12318;51.262;7.066;2023-03-20T14:05:25;8.80;99.90
24162;DHT22;12318;51.262;7.066;2023-03-20T14:07:56;8.80;99.90
24162;DHT22;12318;51.262;7.066;2023-03-20T14:12:59;8.70;99.90
24162;DHT22;12318;51.262;7.066;2023-03-20T14:15:33;8.80;99.90
24162;DHT22;12318;51.262;7.066;2023-03-20T14:18:04;8.80;99.90
24162;DHT22;12318;51.262;7.066;2023-03-20T14:20:36;9.00;99.90
24162;DHT22;12318;51.262;7.066;2023-03-20T14:23:03;9.20;99.90
24162;DHT22;12318;51.262;7.066;2023-03-20T14:25:35;9.30;99.90
24162;DHT22;12318;51.262;7.066;2023-03-20T14:30:47;9.50;99.90
24162;DHT22;12318;51.262;7.066;2023-03-20T14:36:09;9.60;99.90
24162;DHT22;12318;51.262;7.066;2023-03-20T14:51:46;9.20;99.90
24162;DHT22;12318;51.262;7.066;2023-03-20T14:54:26;9.10;99.90
24162;DHT22;12318;51.262;7.066;2023-03-20T14:56:52;9.20;99.90
24162;DHT22;12318;51.262;7.066;2023-03-20T14:59:22;9.20;99.90
24162;DHT22;12318;51.262;7.066;2023-03-20T15:07:09;9.40;99.90
24162;DHT22;12318;51.262;7.066;2023-03-20T15:09:39;9.50;99.90
24162;DHT22;12318;51.262;7.066;2023-03-20T15:12:06;9.50;99.90
24162;DHT22;12318;51.262;7.066;2023-03-20T15:14:56;9.40;99.90
24162;DHT22;12318;51.262;7.066;2023-03-20T15:17:27;9.40;99.90
24162;DHT22;12318;51.262;7.066;2023-03-20T15:22:56;9.60;99.90
24162;DHT22;12318;51.262;7.066;2023-03-20T15:25:58;9.60;99.90
24162;DHT22;12318;51.262;7.066;2023-03-20T15:28:24;9.50;99.90
24162;DHT22;12318;51.262;7.066;2023-03-20T15:30:52;9.40;99.90
24162;DHT22;12318;51.262;7.066;2023-03-20T15:33:40;9.40;99.90
24162;DHT22;12318;51.262;7.066;2023-03-20T15:36:23;9.50;99.90
24162;DHT22;12318;51.262;7.066;2023-03-20T15:38:49;9.30;99.90
24162;DHT22;12318;51.262;7.066;2023-03-20T15:41:28;9.40;99.90
24162;DHT22;12318;51.262;7.066;2023-03-20T15:46:49;9.50;99.90
24162;DHT22;12318;51.262;7.066;2023-03-20T15:49:19;9.50;99.90
24162;DHT22;12318;51.262;7.066;2023-03-20T15:51:46;9.60;99.90
24162;DHT22;12318;51.262;7.066;2023-03-20T15:54:14;9.60;99.90
24162;DHT22;12318;51.262;7.066;2023-03-20T15:56:43;9.60;99.90
24162;DHT22;12318;51.262;7.066;2023-03-20T15:59:16;9.60;99.90
24162;DHT22;12318;51.262;7.066;2023-03-20T16:01:44;9.60;99.90
24162;DHT22;12318;51.262;7.066;2023-03-20T16:04:15;9.50;99.90
24162;DHT22;12318;51.262;7.066;2023-03-20T16:06:56;9.50;99.90
24162;DHT22;12318;51.262;7.066;2023-03-20T16:09:23;9.40;99.90
24162;DHT22;12318;51.262;7.066;2023-03-20T16:11:58;9.30;99.90
24162;DHT22;12318;51.262;7.066;2023-03-20T16:14:26;9.30;99.90
24162;DHT22;12318;51.262;7.066;2023-03-20T16:16:54;9.40;99.90
24162;DHT22;12318;51.262;7.066;2023-03-20T16:19:20;9.40;99.90
24162;DHT22;12318;51.262;7.066;2023-03-20T16:24:29;9.30;99.90
24162;DHT22;12318;51.262;7.066;2023-03-20T16:26:56;9.20;99.90
24162;DHT22;12318;51.262;7.066;2023-03-20T16:29:23;9.20;99.90
24162;DHT22;12318;51.262;7.066;2023-03-20T16:34:24;9.30;99.90
24162;DHT22;12318;51.262;7.066;2023-03-20T16:36:57;9.30;99.90
24162;DHT22;12318;51.262;7.066;2023-03-20T16:39:28;9.20;99.90
24162;DHT22;12318;51.262;7.066;2023-03-20T16:42:22;9.40;99.90
24162;DHT22;12318;51.262;7.066;2023-03-20T16:44:56;9.30;99.90
24162;DHT22;12318;51.262;7.066;2023-03-20T16:47:24;9.30;99.90
24162;DHT22;12318;51.262;7.066;2023-03-20T16:50:10;9.40;99.90
24162;DHT22;12318;51.262;7.066;2023-03-20T16:52:39;9.30;99.90
24162;DHT22;12318;51.262;7.066;2023-03-20T16:55:20;9.30;99.90
24162;DHT22;12318;51.262;7.066;2023-03-20T16:57:50;9.30;99.90
24162;DHT22;12318;51.262;7.066;2023-03-20T17:00:23;9.30;99.90
24162;DHT22;12318;51.262;7.066;2023-03-20T17:02:51;9.10;99.90
24162;DHT22;12318;51.262;7.066;2023-03-20T17:05:22;9.10;99.90
24162;DHT22;12318;51.262;7.066;2023-03-20T17:07:49;9.10;99.90
24162;DHT22;12318;51.262;7.066;2023-03-20T17:10:19;9.10;99.90
24162;DHT22;12318;51.262;7.066;2023-03-20T17:12:48;9.00;99.90
24162;DHT22;12318;51.262;7.066;2023-03-20T17:15:19;9.10;99.90
24162;DHT22;12318;51.262;7.066;2023-03-20T17:17:45;9.00;99.90
24162;DHT22;12318;51.262;7.066;2023-03-20T17:20:24;9.10;99.90
24162;DHT22;12318;51.262;7.066;2023-03-20T17:22:50;9.20;99.90
24162;DHT22;12318;51.262;7.066;2023-03-20T17:25:16;9.10;99.90
24162;DHT22;12318;51.262;7.066;2023-03-20T17:27:43;9.10;99.90
24162;DHT22;12318;51.262;7.066;2023-03-20T17:30:19;9.20;99.90
24162;DHT22;12318;51.262;7.066;2023-03-20T17:32:46;9.20;99.90
24162;DHT22;12318;51.262;7.066;2023-03-20T17:35:12;9.10;99.90
24162;DHT22;12318;51.262;7.066;2023-03-20T17:37:38;9.00;99.90
24162;DHT22;12318;51.262;7.066;2023-03-20T17:40:04;9.10;99.90
24162;DHT22;12318;51.262;7.066;2023-03-20T17:42:30;9.20;99.90
24162;DHT22;12318;51.262;7.066;2023-03-20T17:44:57;9.20;99.90
24162;DHT22;12318;51.262;7.066;2023-03-20T17:47:25;9.20;99.90
24162;DHT22;12318;51.262;7.066;2023-03-20T17:49:51;9.20;99.90
24162;DHT22;12318;51.262;7.066;2023-03-20T17:52:21;9.30;99.90
24162;DHT22;12318;51.262;7.066;2023-03-20T17:54:47;9.10;99.90
24162;DHT22;12318;51.262;7.066;2023-03-20T17:57:24;9.10;99.90
24162;DHT22;12318;51.262;7.066;2023-03-20T17:59:51;9.30;99.90
24162;DHT22;12318;51.262;7.066;2023-03-20T18:02:17;9.30;99.90
24162;DHT22;12318;51.262;7.066;2023-03-20T18:04:44;9.30;99.90
24162;DHT22;12318;51.262;7.066;2023-03-20T18:07:10;9.20;99.90
24162;DHT22;12318;51.262;7.066;2023-03-20T18:09:38;9.20;99.90
24162;DHT22;12318;51.262;7.066;2023-03-20T18:12:04;9.30;99.90
24162;DHT22;12318;51.262;7.066;2023-03-20T18:14:30;9.30;99.90
24162;DHT22;12318;51.262;7.066;2023-03-20T18:16:56;9.30;99.90
24162;DHT22;12318;51.262;7.066;2023-03-20T18:19:26;9.30;99.90
24162;DHT22;12318;51.262;7.066;2023-03-20T18:21:53;9.30;99.90
24162;DHT22;12318;51.262;7.066;2023-03-20T18:24:19;9.20;99.90
24162;DHT22;12318;51.262;7.066;2023-03-20T18:26:45;9.30;99.90
24162;DHT22;12318;51.262;7.066;2023-03-20T18:29:11;9.20;99.90
24162;DHT22;12318;51.262;7.066;2023-03-20T18:31:38;9.30;99.90
24162;DHT22;12318;51.262;7.066;2023-03-20T18:34:04;9.30;99.90
24162;DHT22;12318;51.262;7.066;2023-03-20T18:36:30;9.40;99.90
24162;DHT22;12318;51.262;7.066;2023-03-20T18:38:57;9.30;99.90
24162;DHT22;12318;51.262;7.066;2023-03-20T18:41:23;9.20;99.90
24162;DHT22;12318;51.262;7.066;2023-03-20T18:44:15;9.30;99.90
24162;DHT22;12318;51.262;7.066;2023-03-20T18:46:41;9.20;99.90
24162;DHT22;12318;51.262;7.066;2023-03-20T18:49:13;9.20;99.90
24162;DHT22;12318;51.262;7.066;2023-03-20T18:51:39;9.20;99.90
24162;DHT22;12318;51.262;7.066;2023-03-20T18:54:05;9.30;99.90
24162;DHT22;12318;51.262;7.066;2023-03-20T18:56:31;9.30;99.90
24162;DHT22;12318;51.262;7.066;2023-03-20T18:59:01;9.30;99.90
24162;DHT22;12318;51.262;7.066;2023-03-20T19:01:31;9.40;99.90
24162;DHT22;12318;51.262;7.066;2023-03-20T19:03:56;9.50;99.90
24162;DHT22;12318;51.262;7.066;2023-03-20T19:06:22;9.40;99.90
24162;DHT22;12318;51.262;7.066;2023-03-20T19:08:50;9.40;99.90
24162;DHT22;12318;51.262;7.066;2023-03-20T19:11:16;9.40;99.90
24162;DHT22;12318;51.262;7.066;2023-03-20T19:13:48;9.40;99.90
24162;DHT22;12318;51.262;7.066;2023-03-20T19:16:25;9.40;99.90
24162;DHT22;12318;51.262;7.066;2023-03-20T19:18:53;9.40;99.90
24162;DHT22;12318;51.262;7.066;2023-03-20T19:21:19;9.50;99.90
24162;DHT22;12318;51.262;7.066;2023-03-20T19:23:55;9.50;99.90
24162;DHT22;12318;51.262;7.066;2023-03-20T19:26:22;9.50;99.90
24162;DHT22;12318;51.262;7.066;2023-03-20T19:28:53;9.60;99.90
24162;DHT22;12318;51.262;7.066;2023-03-20T19:31:20;9.60;99.90
24162;DHT22;12318;51.262;7.066;2023-03-20T19:33:46;9.60;99.90
24162;DHT22;12318;51.262;7.066;2023-03-20T19:36:32;9.70;99.90